createdAt,value
2023-03-26T00:02:05.300Z,15.15
2023-03-26T00:04:34.766Z,11.02
2023-03-26T00:07:02.109Z,12.43
2023-03-26T00:09:30.370Z,13.80
2023-03-26T00:11:59.132Z,11.73
2023-03-26T00:14:30.229Z,11.93
2023-03-26T00:16:57.816Z,10.90
2023-03-26T00:19:25.643Z,9.00
2023-03-26T00:21:53.457Z,14.13
2023-03-26T00:24:20.710Z,12.10
2023-03-26T00:26:53.565Z,12.88
2023-03-26T00:29:21.972Z,12.00
2023-03-26T00:31:49.498Z,10.43
2023-03-26T00:34:18.810Z,11.45
2023-03-26T00:36:47.307Z,16.63
2023-03-26T00:39:18.012Z,12.20
2023-03-26T00:41:52.224Z,5.80
2023-03-26T00:44:20.656Z,13.52
2023-03-26T00:46:49.693Z,11.98
2023-03-26T00:49:17.594Z,10.60
2023-03-26T00:51:45.426Z,10.68
2023-03-26T00:54:13.176Z,10.15
2023-03-26T00:56:46.893Z,12.98
2023-03-26T00:59:17.542Z,14.10
2023-03-26T01:01:45.432Z,11.23
2023-03-26T01:04:28.572Z,11.48
2023-03-26T01:09:26.514Z,12.60
2023-03-26T01:11:53.942Z,12.77
2023-03-26T01:14:24.090Z,13.30
2023-03-26T01:16:55.736Z,13.13
2023-03-26T01:19:23.233Z,7.88
2023-03-26T01:21:50.919Z,11.80
2023-03-26T01:24:18.505Z,7.80
2023-03-26T01:26:46.845Z,9.70
2023-03-26T01:29:53.929Z,13.15
2023-03-26T01:32:44.874Z,10.63
2023-03-26T01:35:23.806Z,15.07
2023-03-26T01:37:52.757Z,11.93
2023-03-26T01:40:29.960Z,13.65
2023-03-26T01:43:03.208Z,11.50
2023-03-26T01:45:35.814Z,13.50
2023-03-26T01:48:03.871Z,15.68
2023-03-26T01:50:31.845Z,9.20
2023-03-26T01:53:00.594Z,11.93
2023-03-26T01:55:32.074Z,9.05
2023-03-26T01:58:15.350Z,11.10
2023-03-26T02:03:30.704Z,10.52
2023-03-26T02:06:08.511Z,13.73
2023-03-26T02:08:40.210Z,12.80
2023-03-26T02:11:13.251Z,12.88
2023-03-26T02:16:35.458Z,15.02
2023-03-26T02:19:35.721Z,20.13
2023-03-26T02:22:04.330Z,16.80
2023-03-26T02:27:20.230Z,17.27
2023-03-26T02:29:51.316Z,21.73
2023-03-26T02:32:20.344Z,14.20
2023-03-26T02:34:48.297Z,14.57
2023-03-26T02:37:19.436Z,13.48
2023-03-26T02:39:47.219Z,18.05
2023-03-26T02:42:21.124Z,13.25
2023-03-26T02:45:02.737Z,16.00
2023-03-26T02:47:30.494Z,14.90
2023-03-26T02:49:59.869Z,13.45
2023-03-26T02:52:32.485Z,13.63
2023-03-26T02:55:00.444Z,14.45
2023-03-26T02:57:33.316Z,18.15
2023-03-26T03:00:28.929Z,18.08
2023-03-26T03:02:58.359Z,20.05
2023-03-26T03:05:37.783Z,21.00
2023-03-26T03:08:08.827Z,18.70
2023-03-26T03:10:38.240Z,27.25
2023-03-26T03:13:08.232Z,17.80
2023-03-26T03:15:36.367Z,20.88
2023-03-26T03:18:06.534Z,19.05
2023-03-26T03:20:37.155Z,24.40
2023-03-26T03:23:09.465Z,19.38
2023-03-26T03:25:38.957Z,15.40
2023-03-26T03:28:06.931Z,15.68
2023-03-26T03:30:40.617Z,19.20
2023-03-26T03:33:11.501Z,15.98
2023-03-26T03:35:41.944Z,15.38
2023-03-26T03:38:10.325Z,19.63
2023-03-26T03:40:45.120Z,18.27
2023-03-26T03:55:01.875Z,16.77
2023-03-26T03:57:36.803Z,14.32
2023-03-26T04:13:18.110Z,17.35
2023-03-26T04:15:45.369Z,16.02
2023-03-26T04:18:12.800Z,23.95
2023-03-26T04:20:46.537Z,18.58
2023-03-26T04:23:14.498Z,23.38
2023-03-26T04:25:43.786Z,19.67
2023-03-26T04:28:15.313Z,16.58
2023-03-26T04:30:45.097Z,20.83
2023-03-26T04:33:15.542Z,22.33
2023-03-26T04:35:44.916Z,27.40
2023-03-26T04:38:12.843Z,24.10
2023-03-26T04:40:40.237Z,25.05
2023-03-26T04:43:08.883Z,26.63
2023-03-26T04:45:36.301Z,25.15
2023-03-26T04:48:03.822Z,26.58
2023-03-26T04:50:31.282Z,32.63
2023-03-26T04:52:58.597Z,27.25
2023-03-26T04:55:33.461Z,30.60
2023-03-26T04:58:03.486Z,29.90
2023-03-26T05:00:30.908Z,29.48
2023-03-26T05:03:01.794Z,26.23
2023-03-26T05:05:30.170Z,24.80
2023-03-26T05:07:57.532Z,31.30
2023-03-26T05:10:25.034Z,28.42
2023-03-26T05:12:52.415Z,27.33
2023-03-26T05:15:19.742Z,27.52
2023-03-26T05:17:48.629Z,26.67
2023-03-26T05:20:21.016Z,29.08
2023-03-26T05:22:49.465Z,27.23
2023-03-26T05:25:17.846Z,24.17
2023-03-26T05:27:46.019Z,26.33
2023-03-26T05:30:17.519Z,28.40
2023-03-26T05:32:45.388Z,25.50
2023-03-26T05:35:13.191Z,28.38
2023-03-26T05:37:40.596Z,27.35
2023-03-26T05:40:15.277Z,28.73
2023-03-26T05:42:42.757Z,25.45
2023-03-26T05:45:10.822Z,22.40
2023-03-26T05:47:41.087Z,26.88
2023-03-26T05:50:09.134Z,25.10
2023-03-26T05:52:36.581Z,23.90
2023-03-26T05:55:04.354Z,25.45
2023-03-26T05:57:32.219Z,30.20
2023-03-26T05:59:59.605Z,33.28
2023-03-26T06:02:27.157Z,22.27
2023-03-26T06:04:54.598Z,20.05
2023-03-26T06:07:23.868Z,22.15
2023-03-26T06:09:51.187Z,19.20
2023-03-26T06:12:19.581Z,21.10
2023-03-26T06:14:47.404Z,23.15
2023-03-26T06:17:14.972Z,25.10
2023-03-26T06:19:42.366Z,24.15
2023-03-26T06:22:09.705Z,28.73
2023-03-26T06:24:37.123Z,28.08
2023-03-26T06:27:04.462Z,27.98
2023-03-26T06:29:31.908Z,24.08
2023-03-26T06:32:09.191Z,23.77
2023-03-26T06:34:43.971Z,28.80
2023-03-26T06:37:11.493Z,25.02
2023-03-26T06:39:38.946Z,20.67
2023-03-26T06:42:06.481Z,24.80
2023-03-26T06:44:34.351Z,28.20
2023-03-26T06:47:01.642Z,26.17
2023-03-26T06:49:29.061Z,29.33
2023-03-26T06:51:57.589Z,27.13
2023-03-26T06:54:24.953Z,20.88
2023-03-26T06:56:52.343Z,21.60
2023-03-26T06:59:19.801Z,18.10
2023-03-26T07:01:47.283Z,18.75
2023-03-26T07:04:16.872Z,19.52
2023-03-26T07:06:44.211Z,19.42
2023-03-26T07:09:11.596Z,22.60
2023-03-26T07:11:38.960Z,21.88
2023-03-26T07:14:06.307Z,21.02
2023-03-26T07:16:33.718Z,17.25
2023-03-26T07:19:01.240Z,23.27
2023-03-26T07:21:28.797Z,27.60
2023-03-26T07:23:56.704Z,20.48
2023-03-26T07:26:29.755Z,34.47
2023-03-26T07:31:34.961Z,20.38
2023-03-26T07:34:12.268Z,20.70
2023-03-26T07:36:43.680Z,19.65
2023-03-26T07:39:23.446Z,21.75
2023-03-26T07:41:51.881Z,22.80
2023-03-26T07:44:34.625Z,19.67
2023-03-26T07:47:05.011Z,21.25
2023-03-26T07:49:32.855Z,16.23
2023-03-26T07:52:01.478Z,21.33
2023-03-26T07:54:29.892Z,19.42
2023-03-26T07:57:04.239Z,17.90
2023-03-26T07:59:41.069Z,21.35
2023-03-26T08:02:22.103Z,21.20
2023-03-26T08:04:58.652Z,16.88
2023-03-26T08:07:48.355Z,24.50
2023-03-26T08:10:24.067Z,18.27
2023-03-26T08:12:51.410Z,18.38
2023-03-26T08:15:38.158Z,14.55
2023-03-26T08:18:27.640Z,14.82
2023-03-26T08:20:58.397Z,21.40
2023-03-26T08:23:25.813Z,15.77
2023-03-26T08:25:59.503Z,18.10
2023-03-26T08:28:37.945Z,16.00
2023-03-26T08:31:05.641Z,17.52
2023-03-26T08:33:36.490Z,12.07
2023-03-26T08:36:06.074Z,21.15
2023-03-26T08:38:36.324Z,21.85
2023-03-26T08:41:11.324Z,15.98
2023-03-26T08:43:44.588Z,16.92
2023-03-26T08:46:30.665Z,12.57
2023-03-26T08:49:17.254Z,12.02
2023-03-26T08:51:56.302Z,10.27
2023-03-26T08:54:42.754Z,12.88
2023-03-26T08:57:22.442Z,13.20
2023-03-26T09:00:11.056Z,15.05
2023-03-26T09:03:16.849Z,11.85
2023-03-26T09:06:03.446Z,14.75
2023-03-26T09:08:54.212Z,10.90
2023-03-26T09:11:31.739Z,10.15
2023-03-26T09:14:11.320Z,9.43
2023-03-26T09:17:07.689Z,10.88
2023-03-26T09:19:39.487Z,9.80
2023-03-26T09:22:18.517Z,13.80
2023-03-26T09:24:55.597Z,10.20
2023-03-26T09:27:26.140Z,102.05
2023-03-26T09:30:02.730Z,32.53
2023-03-26T09:32:42.756Z,35.33
2023-03-26T09:35:22.494Z,31.00
2023-03-26T09:37:57.858Z,31.92
2023-03-26T09:40:33.064Z,9.63
2023-03-26T09:43:32.941Z,8.05
2023-03-26T09:46:29.754Z,8.35
2023-03-26T09:49:06.169Z,10.80
2023-03-26T09:51:55.670Z,11.32
2023-03-26T09:54:44.634Z,11.05
2023-03-26T09:57:24.324Z,12.18
2023-03-26T10:00:18.143Z,7.15
2023-03-26T10:02:47.659Z,10.25
2023-03-26T10:05:18.317Z,10.80
2023-03-26T10:07:53.683Z,9.07
2023-03-26T10:10:34.333Z,13.95
2023-03-26T10:13:14.981Z,10.18
2023-03-26T10:16:00.396Z,10.02
2023-03-26T10:18:29.972Z,8.90
2023-03-26T10:21:16.430Z,13.98
2023-03-26T10:23:46.773Z,11.40
2023-03-26T10:26:16.995Z,8.48
2023-03-26T10:28:47.388Z,9.80
2023-03-26T10:31:23.828Z,13.50
2023-03-26T10:33:54.090Z,10.75
2023-03-26T10:36:30.970Z,8.18
2023-03-26T10:39:04.337Z,11.90
2023-03-26T10:41:41.230Z,9.88
2023-03-26T10:44:27.325Z,12.80
2023-03-26T10:47:13.485Z,13.48
2023-03-26T10:49:50.038Z,10.63
2023-03-26T10:52:20.938Z,11.35
2023-03-26T10:54:57.432Z,12.35
2023-03-26T10:57:27.755Z,10.35
2023-03-26T10:59:58.732Z,11.77
2023-03-26T11:02:29.502Z,12.90
2023-03-26T11:05:04.324Z,11.70
2023-03-26T11:07:44.105Z,14.18
2023-03-26T11:10:14.542Z,10.40
2023-03-26T11:12:44.806Z,9.55
2023-03-26T11:15:12.505Z,13.45
2023-03-26T11:17:49.106Z,9.13
2023-03-26T11:20:34.815Z,12.07
2023-03-26T11:23:05.184Z,10.93
2023-03-26T11:25:32.397Z,12.40
2023-03-26T11:28:06.424Z,10.05
2023-03-26T11:30:36.908Z,12.70
2023-03-26T11:33:06.538Z,11.07
2023-03-26T11:35:41.332Z,14.43
2023-03-26T11:38:32.956Z,9.85
2023-03-26T11:41:02.789Z,12.02
2023-03-26T11:43:35.777Z,10.55
2023-03-26T11:46:08.496Z,7.13
2023-03-26T11:48:38.446Z,9.27
2023-03-26T11:51:08.322Z,10.18
2023-03-26T11:53:39.381Z,11.05
2023-03-26T11:56:10.293Z,7.88
2023-03-26T11:58:56.422Z,10.52
2023-03-26T12:01:30.641Z,8.93
2023-03-26T12:03:59.542Z,10.45
2023-03-26T12:06:28.861Z,10.38
2023-03-26T12:08:57.331Z,8.02
2023-03-26T12:11:28.211Z,6.65
2023-03-26T12:14:00.371Z,6.13
2023-03-26T12:16:27.796Z,8.13
2023-03-26T12:19:18.438Z,6.25
2023-03-26T12:21:53.256Z,11.02
2023-03-26T12:24:26.774Z,9.20
2023-03-26T12:27:02.191Z,7.68
2023-03-26T12:29:34.496Z,8.00
2023-03-26T12:32:07.452Z,8.80
2023-03-26T12:37:06.176Z,9.10
2023-03-26T12:40:07.911Z,8.32
2023-03-26T12:44:46.260Z,7.70
2023-03-26T12:45:15.791Z,5.82
2023-03-26T12:48:00.651Z,7.47
2023-03-26T12:50:35.815Z,6.82
2023-03-26T12:53:35.531Z,7.38
2023-03-26T12:56:13.412Z,8.07
2023-03-26T12:58:41.287Z,9.77
2023-03-26T13:01:17.829Z,6.80
2023-03-26T13:04:04.097Z,9.40
2023-03-26T13:06:59.325Z,11.75
2023-03-26T13:09:41.033Z,7.47
2023-03-26T13:12:11.292Z,7.20
2023-03-26T13:14:53.983Z,11.57
2023-03-26T13:17:35.852Z,8.88
2023-03-26T13:20:11.853Z,10.82
2023-03-26T13:22:39.059Z,8.55
2023-03-26T13:25:24.685Z,11.18
2023-03-26T13:31:39.343Z,10.38
2023-03-26T13:34:16.272Z,11.68
2023-03-26T13:37:04.675Z,10.27
2023-03-26T13:39:50.783Z,10.07
2023-03-26T13:43:06.020Z,16.27
2023-03-26T13:45:39.151Z,19.00
2023-03-26T13:48:11.376Z,14.55
2023-03-26T13:50:45.520Z,23.00
2023-03-26T13:53:21.766Z,19.50
2023-03-26T13:55:51.281Z,16.42
2023-03-26T13:58:24.468Z,20.77
2023-03-26T14:01:22.818Z,26.02
2023-03-26T14:03:53.203Z,17.15
2023-03-26T14:06:29.768Z,17.20
2023-03-26T14:09:02.751Z,15.00
2023-03-26T14:14:17.454Z,17.48
2023-03-26T14:16:47.857Z,15.38
2023-03-26T14:19:44.212Z,13.43
2023-03-26T14:22:14.407Z,16.88
2023-03-26T14:24:45.690Z,13.52
2023-03-26T14:30:32.146Z,16.65
2023-03-26T14:33:10.593Z,18.48
2023-03-26T14:35:56.639Z,13.77
2023-03-26T14:38:42.870Z,13.88
2023-03-26T14:41:19.102Z,11.90
2023-03-26T14:50:46.712Z,12.57
2023-03-26T14:56:43.719Z,8.35
2023-03-26T14:59:20.083Z,11.05
2023-03-26T15:01:53.537Z,13.15
2023-03-26T15:04:33.342Z,11.73
2023-03-26T15:07:19.868Z,10.98
2023-03-26T15:09:50.443Z,9.40
2023-03-26T15:12:24.153Z,13.32
2023-03-26T15:15:04.406Z,10.23
2023-03-26T15:21:12.581Z,16.25
2023-03-26T15:23:49.354Z,14.55
2023-03-26T15:26:23.566Z,11.45
2023-03-26T15:29:02.511Z,7.82
2023-03-26T15:32:22.329Z,13.05
2023-03-26T15:35:14.910Z,11.00
2023-03-26T15:41:30.045Z,7.35
2023-03-26T15:46:51.415Z,7.93
2023-03-26T15:49:27.970Z,12.07
2023-03-26T15:55:27.825Z,9.68
2023-03-26T15:58:04.513Z,15.15
2023-03-26T16:00:35.425Z,15.20
2023-03-26T16:03:14.858Z,13.85
2023-03-26T16:05:54.511Z,11.27
2023-03-26T16:08:27.808Z,14.00
2023-03-26T16:10:58.037Z,9.05
2023-03-26T16:13:31.956Z,11.10
2023-03-26T16:16:18.454Z,13.65
2023-03-26T16:18:54.729Z,11.48
2023-03-26T16:21:32.314Z,11.02
2023-03-26T16:24:03.225Z,15.43
2023-03-26T16:26:46.050Z,17.73
2023-03-26T16:29:19.656Z,14.00
2023-03-26T16:32:06.095Z,14.27
2023-03-26T16:34:42.333Z,15.15
2023-03-26T16:37:47.446Z,12.98
2023-03-26T16:40:28.128Z,18.95
2023-03-26T16:43:32.717Z,13.45
2023-03-26T16:46:23.074Z,10.27
2023-03-26T16:49:09.452Z,16.67
2023-03-26T16:51:42.948Z,8.32
2023-03-26T16:54:14.063Z,16.45
2023-03-26T17:01:03.597Z,7.22
2023-03-26T17:07:34.777Z,13.27
2023-03-26T17:10:21.058Z,10.68
2023-03-26T17:13:18.766Z,9.82
2023-03-26T17:16:00.570Z,10.65
2023-03-26T17:18:36.673Z,11.15
2023-03-26T17:21:14.851Z,11.43
2023-03-26T17:23:55.117Z,13.82
2023-03-26T17:26:43.177Z,13.25
2023-03-26T17:29:31.295Z,11.40
2023-03-26T17:32:01.905Z,12.55
2023-03-26T17:34:51.038Z,11.60
2023-03-26T17:37:19.038Z,13.40
2023-03-26T17:40:12.217Z,8.40
2023-03-26T17:43:01.264Z,7.80
2023-03-26T17:45:31.207Z,14.05
2023-03-26T17:48:02.519Z,14.35
2023-03-26T17:50:48.168Z,11.32
2023-03-26T17:53:54.702Z,8.27
2023-03-26T17:56:19.989Z,7.50
2023-03-26T17:58:49.839Z,9.82
2023-03-26T18:01:37.809Z,15.10
2023-03-26T18:04:07.668Z,9.07
2023-03-26T18:06:34.942Z,14.35
2023-03-26T18:09:10.643Z,12.07
2023-03-26T18:11:51.046Z,10.32
2023-03-26T18:14:35.800Z,12.85
2023-03-26T18:17:03.505Z,8.05
2023-03-26T18:19:34.519Z,12.70
2023-03-26T18:22:07.423Z,17.38
2023-03-26T18:24:40.914Z,14.70
2023-03-26T18:27:13.083Z,9.70
2023-03-26T18:29:45.474Z,8.65
2023-03-26T18:32:13.273Z,12.20
2023-03-26T18:34:50.909Z,13.52
2023-03-26T18:37:23.994Z,17.58
2023-03-26T18:42:23.454Z,17.10
2023-03-26T18:44:54.137Z,12.65
2023-03-26T18:47:29.149Z,10.10
2023-03-26T18:49:58.146Z,14.85
2023-03-26T18:52:28.196Z,6.75
2023-03-26T18:54:56.385Z,14.15
2023-03-26T18:57:25.070Z,14.70
2023-03-26T18:59:57.170Z,11.80
2023-03-26T19:02:26.369Z,14.80
2023-03-26T19:04:54.443Z,13.13
2023-03-26T19:07:26.784Z,16.58
2023-03-26T19:09:57.087Z,11.43
2023-03-26T19:12:30.357Z,5.90
2023-03-26T19:14:59.946Z,13.40
2023-03-26T19:17:32.333Z,9.40
2023-03-26T19:19:59.954Z,7.65
2023-03-26T19:22:27.750Z,16.30
2023-03-26T19:24:57.885Z,3.97
2023-03-26T19:27:25.364Z,10.73
2023-03-26T19:29:53.333Z,11.40
2023-03-26T19:32:23.412Z,12.02
2023-03-26T19:34:52.783Z,15.93
2023-03-26T19:37:25.275Z,10.00
2023-03-26T19:39:56.388Z,8.48
2023-03-26T19:42:44.059Z,8.10
2023-03-26T19:45:23.191Z,14.55
2023-03-26T19:48:03.600Z,13.77
2023-03-26T19:50:36.662Z,9.23
2023-03-26T19:53:16.173Z,3.35
2023-03-26T19:55:53.468Z,10.95
2023-03-26T19:58:21.341Z,8.10
2023-03-26T20:00:48.796Z,6.03
2023-03-26T20:03:17.956Z,11.88
2023-03-26T20:05:45.315Z,12.15
2023-03-26T20:08:14.703Z,8.77
2023-03-26T20:10:42.652Z,9.45
2023-03-26T20:13:14.751Z,6.75
2023-03-26T20:15:43.116Z,6.40
2023-03-26T20:18:12.361Z,8.52
2023-03-26T20:20:41.262Z,7.20
2023-03-26T20:23:17.783Z,5.50
2023-03-26T20:25:54.585Z,6.97
2023-03-26T20:28:22.429Z,10.85
2023-03-26T20:30:50.224Z,14.40
2023-03-26T20:33:27.117Z,7.32
2023-03-26T20:35:55.575Z,10.35
2023-03-26T20:38:36.567Z,8.20
2023-03-26T20:41:07.359Z,9.57
2023-03-26T20:43:34.633Z,16.63
2023-03-26T20:46:01.902Z,8.95
2023-03-26T20:48:31.520Z,7.70
2023-03-26T20:50:58.826Z,10.25
2023-03-26T20:53:26.151Z,11.05
2023-03-26T20:55:53.567Z,9.07
2023-03-26T20:58:31.079Z,5.40
2023-03-26T21:01:05.116Z,5.25
2023-03-26T21:03:35.290Z,13.20
2023-03-26T21:06:03.706Z,11.00
2023-03-26T21:08:34.347Z,7.10
2023-03-26T21:11:02.259Z,7.72
2023-03-26T21:13:37.710Z,10.07
2023-03-26T21:16:06.647Z,9.57
2023-03-26T21:18:34.539Z,12.10
2023-03-26T21:21:18.066Z,7.85
2023-03-26T21:23:56.989Z,7.47
2023-03-26T21:26:44.650Z,9.88
2023-03-26T21:29:12.874Z,5.88
2023-03-26T21:31:40.706Z,4.20
2023-03-26T21:34:09.666Z,5.18
2023-03-26T21:36:37.357Z,4.13
2023-03-26T21:39:06.577Z,6.80
2023-03-26T21:41:41.610Z,8.25
2023-03-26T21:44:09.115Z,8.43
2023-03-26T21:46:36.635Z,7.65
2023-03-26T21:49:04.829Z,8.43
2023-03-26T21:51:34.018Z,6.43
2023-03-26T21:54:01.389Z,9.70
2023-03-26T21:56:34.904Z,7.00
2023-03-26T21:59:02.144Z,11.48
2023-03-26T22:01:38.458Z,8.07
2023-03-26T22:04:14.481Z,4.90
2023-03-26T22:06:49.116Z,7.80
2023-03-26T22:09:20.600Z,6.93
2023-03-26T22:11:50.846Z,9.43
2023-03-26T22:14:18.228Z,7.32
2023-03-26T22:16:45.477Z,8.50
2023-03-26T22:19:13.794Z,11.88
2023-03-26T22:21:41.046Z,9.38
2023-03-26T22:24:08.845Z,18.35
2023-03-26T22:26:37.342Z,3.72
2023-03-26T22:29:05.462Z,12.90
2023-03-26T22:31:32.952Z,14.63
2023-03-26T22:34:00.609Z,6.70
2023-03-26T22:36:27.853Z,7.93
2023-03-26T22:38:56.744Z,8.35
2023-03-26T22:41:23.971Z,15.52
2023-03-26T22:43:55.009Z,8.13
2023-03-26T22:46:23.001Z,6.15
2023-03-26T22:48:51.183Z,9.85
2023-03-26T22:51:18.895Z,5.00
2023-03-26T22:53:46.360Z,10.15
2023-03-26T22:56:14.413Z,12.50
2023-03-26T22:58:41.656Z,5.45
2023-03-26T23:01:11.577Z,10.38
2023-03-26T23:03:39.474Z,8.68
2023-03-26T23:06:08.094Z,7.35
2023-03-26T23:08:37.430Z,8.93
2023-03-26T23:11:15.481Z,8.73
2023-03-26T23:13:43.226Z,10.80
2023-03-26T23:16:11.299Z,11.90
2023-03-26T23:18:38.803Z,12.77
2023-03-26T23:21:11.926Z,6.72
2023-03-26T23:23:39.856Z,4.57
2023-03-26T23:26:07.394Z,9.30
2023-03-26T23:28:35.720Z,7.40
2023-03-26T23:31:04.547Z,10.43
2023-03-26T23:33:35.345Z,4.47
2023-03-26T23:36:04.348Z,16.23
2023-03-26T23:38:44.195Z,8.53
2023-03-26T23:41:15.728Z,6.03
2023-03-26T23:43:53.768Z,12.68
2023-03-26T23:46:23.620Z,22.00
2023-03-26T23:48:52.520Z,9.85
2023-03-26T23:51:20.353Z,11.30
2023-03-26T23:53:49.316Z,13.38
2023-03-26T23:56:17.193Z,7.80
2023-03-26T23:58:44.572Z,13.77
